createdAt,value
2022-12-09T00:02:59.553Z,59.80
2022-12-09T00:08:18.353Z,59.91
2022-12-09T00:13:22.923Z,60.39
2022-12-09T00:18:28.006Z,60.58
2022-12-09T00:23:32.001Z,60.69
2022-12-09T00:34:11.607Z,61.07
2022-12-09T00:39:37.898Z,61.28
2022-12-09T00:44:42.259Z,61.48
2022-12-09T00:49:46.527Z,61.71
2022-12-09T01:00:12.500Z,61.93
2022-12-09T01:05:22.204Z,70.54
2022-12-09T01:10:26.601Z,61.77
2022-12-09T01:15:30.864Z,49.78
2022-12-09T01:20:38.315Z,49.87
2022-12-09T01:25:42.901Z,51.16
2022-12-09T01:31:03.749Z,51.99
2022-12-09T01:36:17.611Z,53.02
2022-12-09T01:41:22.722Z,54.27
2022-12-09T01:47:23.031Z,55.35
2022-12-09T01:57:50.548Z,57.08
2022-12-09T02:03:07.706Z,58.06
2022-12-09T02:08:19.676Z,58.86
2022-12-09T02:13:38.769Z,59.44
2022-12-09T02:18:58.860Z,59.92
2022-12-09T02:24:24.108Z,60.41
2022-12-09T02:29:50.016Z,60.64
2022-12-09T02:35:16.245Z,60.91
2022-12-09T02:40:51.054Z,61.27
2022-12-09T02:45:58.118Z,61.51
2022-12-09T02:51:09.738Z,61.86
2022-12-09T02:56:16.360Z,69.79
2022-12-09T03:01:35.661Z,60.29
2022-12-09T03:06:46.183Z,49.93
2022-12-09T03:11:55.719Z,50.70
2022-12-09T03:17:26.718Z,51.67
2022-12-09T03:22:36.418Z,52.88
2022-12-09T03:27:54.148Z,54.16
2022-12-09T03:33:03.886Z,55.40
2022-12-09T03:38:13.058Z,56.46
2022-12-09T03:43:27.036Z,57.33
2022-12-09T03:48:31.911Z,58.16
2022-12-09T03:53:57.133Z,59.00
2022-12-09T03:59:05.474Z,59.55
2022-12-09T04:04:16.115Z,60.15
2022-12-09T04:09:26.415Z,60.77
2022-12-09T04:14:30.556Z,61.01
2022-12-09T04:19:34.843Z,61.20
2022-12-09T04:24:39.037Z,61.58
2022-12-09T04:29:46.423Z,70.14
2022-12-09T04:34:50.736Z,62.18
2022-12-09T04:39:56.397Z,49.93
2022-12-09T04:45:03.152Z,49.82
2022-12-09T04:50:08.378Z,51.66
2022-12-09T04:55:28.557Z,52.86
2022-12-09T05:00:42.773Z,53.81
2022-12-09T05:05:47.184Z,55.28
2022-12-09T05:16:26.454Z,56.91
2022-12-09T05:21:30.781Z,57.82
2022-12-09T05:26:40.046Z,58.52
2022-12-09T05:31:44.214Z,59.04
2022-12-09T05:36:53.037Z,59.48
2022-12-09T05:42:09.357Z,59.91
2022-12-09T05:47:27.058Z,60.26
2022-12-09T05:52:31.776Z,60.76
2022-12-09T05:57:37.958Z,61.35
2022-12-09T06:02:42.592Z,69.63
2022-12-09T06:07:46.543Z,60.64
2022-12-09T06:12:53.840Z,49.66
2022-12-09T06:17:58.127Z,50.45
2022-12-09T06:23:08.633Z,51.46
2022-12-09T06:28:15.076Z,52.56
2022-12-09T06:33:52.611Z,54.21
2022-12-09T06:38:46.153Z,55.28
2022-12-09T06:44:04.197Z,56.48
2022-12-09T06:49:16.009Z,57.15
2022-12-09T06:54:23.101Z,58.22
2022-12-09T06:59:29.953Z,58.97
2022-12-09T07:04:34.344Z,59.46
2022-12-09T07:09:41.550Z,60.04
2022-12-09T07:14:46.864Z,60.60
2022-12-09T07:19:51.951Z,61.06
2022-12-09T07:24:56.750Z,69.64
2022-12-09T07:30:08.191Z,63.19
2022-12-09T07:35:15.452Z,50.25
2022-12-09T07:40:28.039Z,50.50
2022-12-09T07:45:35.003Z,52.09
2022-12-09T07:51:05.541Z,53.18
2022-12-09T07:56:32.212Z,54.50
2022-12-09T08:01:47.958Z,55.76
2022-12-09T08:08:01.104Z,56.56
2022-12-09T08:13:09.069Z,57.85
2022-12-09T08:18:31.784Z,58.89
2022-12-09T08:23:45.864Z,59.68
2022-12-09T08:28:51.644Z,60.24
2022-12-09T08:34:01.525Z,60.82
2022-12-09T08:39:07.787Z,61.13
2022-12-09T08:44:20.244Z,69.92
2022-12-09T08:49:34.838Z,61.37
2022-12-09T08:54:38.915Z,49.58
2022-12-09T08:59:45.465Z,50.16
2022-12-09T09:04:50.135Z,51.57
2022-12-09T09:09:58.255Z,52.58
2022-12-09T09:15:03.820Z,53.37
2022-12-09T09:20:12.362Z,54.31
2022-12-09T09:25:19.085Z,55.15
2022-12-09T09:30:25.395Z,56.02
2022-12-09T09:36:13.005Z,56.48
2022-12-09T09:41:27.042Z,57.33
2022-12-09T09:47:05.450Z,57.92
2022-12-09T09:52:26.137Z,58.06
2022-12-09T09:58:11.046Z,58.39
2022-12-09T10:04:22.065Z,58.27
2022-12-09T10:10:02.058Z,58.47
2022-12-09T10:15:31.540Z,58.23
2022-12-09T10:20:48.017Z,58.54
2022-12-09T10:25:57.811Z,58.12
2022-12-09T10:31:03.644Z,57.35
2022-12-09T10:36:38.108Z,56.84
2022-12-09T10:42:34.801Z,55.83
2022-12-09T10:47:49.838Z,55.58
2022-12-09T10:52:56.116Z,55.71
2022-12-09T10:58:17.900Z,55.89
2022-12-09T11:09:27.215Z,55.79
2022-12-09T11:14:53.267Z,55.90
2022-12-09T11:20:26.387Z,55.45
2022-12-09T11:25:50.408Z,55.11
2022-12-09T11:36:42.247Z,55.19
2022-12-09T11:42:16.131Z,54.96
2022-12-09T11:48:25.891Z,55.09
2022-12-09T11:53:34.435Z,54.97
2022-12-09T11:59:16.850Z,54.49
2022-12-09T12:05:08.303Z,54.22
2022-12-09T12:10:30.558Z,54.14
2022-12-09T12:16:07.831Z,53.83
2022-12-09T12:27:55.264Z,53.75
2022-12-09T12:39:29.854Z,55.17
2022-12-09T12:46:34.044Z,55.61
2022-12-09T12:52:04.187Z,55.64
2022-12-09T12:57:26.728Z,55.96
2022-12-09T13:02:47.827Z,56.29
2022-12-09T13:08:02.583Z,56.34
2022-12-09T13:13:19.532Z,56.52
2022-12-09T13:18:35.682Z,56.40
2022-12-09T13:24:08.823Z,56.29
2022-12-09T13:29:51.501Z,56.03
2022-12-09T13:35:05.719Z,55.80
2022-12-09T13:40:24.817Z,55.91
2022-12-09T13:45:37.669Z,55.87
2022-12-09T13:50:44.406Z,56.31
2022-12-09T13:56:07.203Z,56.33
2022-12-09T14:08:01.803Z,56.61
2022-12-09T14:13:26.959Z,56.89
2022-12-09T14:18:50.439Z,57.20
2022-12-09T14:24:11.598Z,57.51
2022-12-09T14:30:01.825Z,57.75
2022-12-09T14:35:12.977Z,57.91
2022-12-09T14:40:51.026Z,58.05
2022-12-09T14:46:01.146Z,57.79
2022-12-09T14:51:16.194Z,57.80
2022-12-09T15:01:50.200Z,58.48
2022-12-09T15:07:23.327Z,58.79
2022-12-09T15:12:48.014Z,58.69
2022-12-09T15:18:31.641Z,59.01
2022-12-09T15:23:45.847Z,59.41
2022-12-09T15:28:55.742Z,59.77
2022-12-09T15:34:26.286Z,60.23
2022-12-09T15:39:59.478Z,60.59
2022-12-09T15:45:12.097Z,60.94
2022-12-09T15:50:18.840Z,61.21
2022-12-09T15:55:42.733Z,61.63
2022-12-09T16:00:52.522Z,61.88
2022-12-09T16:11:41.730Z,61.97
2022-12-09T16:16:53.023Z,49.64
2022-12-09T16:22:01.332Z,50.01
2022-12-09T16:27:06.247Z,51.47
2022-12-09T16:32:34.734Z,52.90
2022-12-09T16:37:42.269Z,53.98
2022-12-09T16:42:48.621Z,55.79
2022-12-09T16:47:56.761Z,56.72
2022-12-09T16:53:00.904Z,57.61
2022-12-09T16:58:05.530Z,58.58
2022-12-09T17:03:16.036Z,59.82
2022-12-09T17:08:19.785Z,60.51
2022-12-09T17:13:23.575Z,60.87
2022-12-09T17:18:28.783Z,61.44
2022-12-09T17:23:39.395Z,70.83
2022-12-09T17:28:45.286Z,63.81
2022-12-09T17:33:49.853Z,50.72
2022-12-09T17:38:53.643Z,50.51
2022-12-09T17:43:58.060Z,51.93
2022-12-09T17:49:15.093Z,53.30
2022-12-09T17:54:32.276Z,54.52
2022-12-09T17:59:38.971Z,55.89
2022-12-09T18:04:43.283Z,57.10
2022-12-09T18:09:54.609Z,58.22
2022-12-09T18:14:58.589Z,59.18
2022-12-09T18:20:02.406Z,60.02
2022-12-09T18:25:08.098Z,60.82
2022-12-09T18:30:13.705Z,70.26
2022-12-09T18:35:17.655Z,63.70
2022-12-09T18:40:24.440Z,50.95
2022-12-09T18:45:28.159Z,50.71
2022-12-09T18:50:31.668Z,52.24
2022-12-09T18:55:41.854Z,53.68
2022-12-09T19:00:48.918Z,54.81
2022-12-09T19:05:52.850Z,56.19
2022-12-09T19:10:57.861Z,57.69
2022-12-09T19:16:10.338Z,58.62
2022-12-09T19:21:19.955Z,59.26
2022-12-09T19:26:26.431Z,60.11
2022-12-09T19:31:35.644Z,60.95
2022-12-09T19:36:40.068Z,70.50
2022-12-09T19:41:44.751Z,62.97
2022-12-09T19:46:50.595Z,50.68
2022-12-09T19:51:55.055Z,50.69
2022-12-09T19:56:58.822Z,52.05
2022-12-09T20:02:02.320Z,53.62
2022-12-09T20:07:08.338Z,54.74
2022-12-09T20:12:12.725Z,55.97
2022-12-09T20:17:20.024Z,57.19
2022-12-09T20:22:23.869Z,58.36
2022-12-09T20:27:30.526Z,59.32
2022-12-09T20:37:58.630Z,60.99
2022-12-09T20:43:05.081Z,70.62
2022-12-09T20:48:08.887Z,64.66
2022-12-09T20:53:12.590Z,50.96
2022-12-09T20:58:16.287Z,49.60
2022-12-09T21:03:20.279Z,51.42
2022-12-09T21:08:45.269Z,52.81
2022-12-09T21:13:52.284Z,53.79
2022-12-09T21:18:59.439Z,55.38
2022-12-09T21:24:06.313Z,56.83
2022-12-09T21:29:11.949Z,58.36
2022-12-09T21:34:15.595Z,58.97
2022-12-09T21:39:19.951Z,59.77
2022-12-09T21:51:25.068Z,71.53
2022-12-09T21:58:27.058Z,56.88
2022-12-09T22:03:14.667Z,50.40
2022-12-09T22:09:01.759Z,52.14
2022-12-09T22:14:29.453Z,53.35
2022-12-09T22:19:43.458Z,54.80
2022-12-09T22:24:50.185Z,56.56
2022-12-09T22:29:53.199Z,58.16
2022-12-09T22:34:57.151Z,59.63
2022-12-09T22:40:00.230Z,59.82
2022-12-09T22:45:05.387Z,60.51
2022-12-09T22:50:09.182Z,61.21
2022-12-09T22:55:12.585Z,70.68
2022-12-09T23:00:15.982Z,62.98
2022-12-09T23:05:19.196Z,50.63
2022-12-09T23:10:22.595Z,50.65
2022-12-09T23:15:25.865Z,52.37
2022-12-09T23:20:29.517Z,53.72
2022-12-09T23:37:28.665Z,57.45
